Startpagina
METAR-TAF:

METAR-TAF

Vliegvelden :

Arnhem, Nederland

Vliegbasis Deelen

breedte: 52-04N, lengte: 005-53E, hoogte: 48 m

Actueel weer

Dit bericht is 17 minuten geleden gemaakt, om 10:55 UTC
Wind 6 kt uit variabele richting
Temperatuur 24°C
Vochtigheid 44%
Druk 1022 hPa
Zicht 10 km of meer

METAR: EHDL 261055Z AUTO VRB06KT 9999 NCD 24/11 Q1022 BLU

Tijdstip: 13:12 (11:12 UTC)


TAF: ontbreekt

Waarnemingen en weersverwachtingen van meer dan 4000 vliegvelden (METAR en TAF).

De beschikbare stations zijn de gele en rode punten op de kaart.

Ga met uw muis naar het station om de naam te zien.

Klik dan om waarnemingen en weersverwachtingen te zien.

kaart wijzigen: klik op de groene knoppen met een zwart kruis om in te zoomen, op de groene knop met een streepje om uit te zoomen of op de groene pijlen voor aangrenzende kaarten.


METAR-TAF: